Airfield :
LOGIN :

Register | Disclaimer

   EN    FR    IT 

 










Legend :    VFR   Marginal VFR   IFR   Intensive IFR   Very Intensive IFR
Visi :
Ceiling :
>= 8 km
>= 3000ft
5 to 8 km
1000 to 3000 ft
1500m to 5 km
500 to 1000 ft
800 to 1500m
200 to 500 ft
< 800m
< 200 ft
Symbols :   Thunderstorms  Fog  Heavy snow  Heavy precipitations  Wind > 20 kt
SIGMETs :     Misc.  Thunderstorms  Icing  Turbulence  Mountain Waves  Volcanic Ashes






- Airport Elevation : 778 ft
- IATA code : BRQ


LKTB - Brno-Turany

CURRENT METAR :
  • 091000Z VRB03KT 9999 BKN018 19/15 Q1019 NOSIG

EXPIRED METARs :
  • 090930Z 19005KT 140V220 9999 BKN016 18/15 Q1019 NOSIG
  • 090900Z 19005KT 150V210 9999 BKN016 OVC022 18/14 Q1019 NOSIG
  • 090830Z 18004KT 140V230 9999 BKN023 OVC029 17/14 Q1019 NOSIG
  • 090800Z 17003KT 140V210 9999 BKN016 OVC022 17/14 Q1019 NOSIG
  • 090730Z VRB02KT 9999 FEW014 OVC022 17/14 Q1019 NOSIG

TAF TAF LKTB
Valid from the 09 at 06:00 until the 10 at 12:00 UTC


090500Z 0906/1012 VRB02KT 9999 BKN040
TEMPO 0906/0908 6000 SCT003
PROB30
TEMPO 0906/0908 4000 BR BKN003
BECMG 0908/0910 19004KT SCT040
TEMPO 0919/1006 VRB02KT



MET'MAP, your aeronautical weather chart ! - Copyright ORBIFLY December 2007 - Disclaimer

ORBIFLY MET'MAP TEAM :

Programming & Development : Alexandra Zaïnal
Concept & original design : Baudouin d'Aumeries
Assistance for programming : Marc-Olivier Méhu
Technical & hardware support : Manuel Goepfert

Contact : metmap@orbifly.com




SOURCES & CREDITS :

   NOAA